sensor_id;sensor_type;location;lat;lon;timestamp;P1;durP1;ratioP1;P2;durP2;ratioP2
75167;SDS011;63748;48.088;11.476;2022-12-31T00:00:04;0.17;;;0.17;;
75167;SDS011;63748;48.088;11.476;2022-12-31T00:02:30;0.88;;;0.43;;
75167;SDS011;63748;48.088;11.476;2022-12-31T00:04:56;1.77;;;0.60;;
75167;SDS011;63748;48.088;11.476;2022-12-31T00:07:22;0.73;;;0.43;;
75167;SDS011;63748;48.088;11.476;2022-12-31T00:09:48;2.33;;;0.88;;
75167;SDS011;63748;48.088;11.476;2022-12-31T00:12:15;1.38;;;0.82;;
75167;SDS011;63748;48.088;11.476;2022-12-31T00:14:41;0.95;;;0.40;;
75167;SDS011;63748;48.088;11.476;2022-12-31T00:17:07;4.05;;;1.52;;
75167;SDS011;63748;48.088;11.476;2022-12-31T00:19:33;2.47;;;1.00;;
75167;SDS011;63748;48.088;11.476;2022-12-31T00:21:59;1.63;;;0.68;;
75167;SDS011;63748;48.088;11.476;2022-12-31T00:24:25;0.45;;;0.30;;
75167;SDS011;63748;48.088;11.476;2022-12-31T00:26:55;2.78;;;0.77;;
75167;SDS011;63748;48.088;11.476;2022-12-31T00:29:21;0.93;;;0.40;;
75167;SDS011;63748;48.088;11.476;2022-12-31T00:31:47;0.82;;;0.30;;
75167;SDS011;63748;48.088;11.476;2022-12-31T00:34:13;0.28;;;0.28;;
75167;SDS011;63748;48.088;11.476;2022-12-31T00:36:39;0.93;;;0.28;;
75167;SDS011;63748;48.088;11.476;2022-12-31T00:39:07;0.20;;;0.20;;
75167;SDS011;63748;48.088;11.476;2022-12-31T00:41:33;1.13;;;0.20;;
75167;SDS011;63748;48.088;11.476;2022-12-31T00:43:59;0.40;;;0.30;;
75167;SDS011;63748;48.088;11.476;2022-12-31T00:46:25;0.55;;;0.55;;
75167;SDS011;63748;48.088;11.476;2022-12-31T00:48:51;0.20;;;0.20;;
75167;SDS011;63748;48.088;11.476;2022-12-31T00:51:19;0.57;;;0.25;;
75167;SDS011;63748;48.088;11.476;2022-12-31T00:53:45;0.28;;;0.20;;
75167;SDS011;63748;48.088;11.476;2022-12-31T00:56:12;0.50;;;0.28;;
75167;SDS011;63748;48.088;11.476;2022-12-31T00:58:39;0.30;;;0.15;;
75167;SDS011;63748;48.088;11.476;2022-12-31T01:03:34;0.20;;;0.20;;
75167;SDS011;63748;48.088;11.476;2022-12-31T01:06:00;0.10;;;0.10;;
75167;SDS011;63748;48.088;11.476;2022-12-31T01:08:26;0.10;;;0.10;;
75167;SDS011;63748;48.088;11.476;2022-12-31T01:10:52;0.40;;;0.30;;
75167;SDS011;63748;48.088;11.476;2022-12-31T01:13:37;0.22;;;0.22;;
75167;SDS011;63748;48.088;11.476;2022-12-31T01:16:07;0.32;;;0.20;;
75167;SDS011;63748;48.088;11.476;2022-12-31T01:18:33;0.32;;;0.32;;
75167;SDS011;63748;48.088;11.476;2022-12-31T01:21:02;2.53;;;0.30;;
75167;SDS011;63748;48.088;11.476;2022-12-31T01:23:29;0.10;;;0.10;;
75167;SDS011;63748;48.088;11.476;2022-12-31T01:25:55;0.17;;;0.17;;
75167;SDS011;63748;48.088;11.476;2022-12-31T01:28:21;0.20;;;0.20;;
75167;SDS011;63748;48.088;11.476;2022-12-31T01:30:47;0.10;;;0.10;;
75167;SDS011;63748;48.088;11.476;2022-12-31T01:33:13;0.10;;;0.10;;
75167;SDS011;63748;48.088;11.476;2022-12-31T01:35:39;0.20;;;0.20;;
75167;SDS011;63748;48.088;11.476;2022-12-31T01:38:05;0.30;;;0.30;;
75167;SDS011;63748;48.088;11.476;2022-12-31T01:40:35;0.20;;;0.17;;
75167;SDS011;63748;48.088;11.476;2022-12-31T01:43:01;0.43;;;0.30;;
75167;SDS011;63748;48.088;11.476;2022-12-31T01:45:27;0.20;;;0.20;;
75167;SDS011;63748;48.088;11.476;2022-12-31T01:47:54;0.13;;;0.13;;
75167;SDS011;63748;48.088;11.476;2022-12-31T01:50:24;0.40;;;0.20;;
75167;SDS011;63748;48.088;11.476;2022-12-31T01:52:53;0.20;;;0.20;;
75167;SDS011;63748;48.088;11.476;2022-12-31T01:55:55;0.10;;;0.10;;
75167;SDS011;63748;48.088;11.476;2022-12-31T01:58:14;0.30;;;0.30;;
75167;SDS011;63748;48.088;11.476;2022-12-31T02:00:42;0.20;;;0.20;;
75167;SDS011;63748;48.088;11.476;2022-12-31T02:03:09;0.32;;;0.28;;
75167;SDS011;63748;48.088;11.476;2022-12-31T02:08:10;0.20;;;0.20;;
75167;SDS011;63748;48.088;11.476;2022-12-31T02:10:36;0.20;;;0.20;;
75167;SDS011;63748;48.088;11.476;2022-12-31T02:13:02;0.10;;;0.10;;
75167;SDS011;63748;48.088;11.476;2022-12-31T02:30:49;0.20;;;0.20;;
75167;SDS011;63748;48.088;11.476;2022-12-31T02:33:21;0.10;;;0.10;;
75167;SDS011;63748;48.088;11.476;2022-12-31T02:35:48;0.10;;;0.10;;
75167;SDS011;63748;48.088;11.476;2022-12-31T02:38:20;0.25;;;0.20;;
75167;SDS011;63748;48.088;11.476;2022-12-31T02:40:46;0.20;;;0.20;;
75167;SDS011;63748;48.088;11.476;2022-12-31T02:43:13;0.10;;;0.10;;
75167;SDS011;63748;48.088;11.476;2022-12-31T02:45:40;0.10;;;0.10;;
75167;SDS011;63748;48.088;11.476;2022-12-31T02:48:44;0.20;;;0.20;;
75167;SDS011;63748;48.088;11.476;2022-12-31T02:53:57;0.20;;;0.20;;
75167;SDS011;63748;48.088;11.476;2022-12-31T02:56:26;0.22;;;0.22;;
75167;SDS011;63748;48.088;11.476;2022-12-31T03:02:19;0.73;;;0.20;;
75167;SDS011;63748;48.088;11.476;2022-12-31T03:04:53;0.90;;;0.30;;
75167;SDS011;63748;48.088;11.476;2022-12-31T03:07:21;0.30;;;0.20;;
75167;SDS011;63748;48.088;11.476;2022-12-31T03:09:47;0.28;;;0.22;;
75167;SDS011;63748;48.088;11.476;2022-12-31T03:12:14;0.15;;;0.15;;
75167;SDS011;63748;48.088;11.476;2022-12-31T03:14:59;0.10;;;0.10;;
75167;SDS011;63748;48.088;11.476;2022-12-31T03:17:25;0.30;;;0.13;;
75167;SDS011;63748;48.088;11.476;2022-12-31T03:19:51;0.30;;;0.30;;
75167;SDS011;63748;48.088;11.476;2022-12-31T03:22:37;0.38;;;0.28;;
75167;SDS011;63748;48.088;11.476;2022-12-31T03:25:05;2.15;;;0.22;;
75167;SDS011;63748;48.088;11.476;2022-12-31T03:27:51;1.05;;;0.22;;
75167;SDS011;63748;48.088;11.476;2022-12-31T03:30:18;0.20;;;0.20;;
75167;SDS011;63748;48.088;11.476;2022-12-31T03:32:45;0.20;;;0.20;;
75167;SDS011;63748;48.088;11.476;2022-12-31T03:35:12;0.43;;;0.38;;
75167;SDS011;63748;48.088;11.476;2022-12-31T03:37:40;0.20;;;0.20;;
75167;SDS011;63748;48.088;11.476;2022-12-31T03:40:07;0.20;;;0.20;;
75167;SDS011;63748;48.088;11.476;2022-12-31T03:42:33;0.47;;;0.22;;
75167;SDS011;63748;48.088;11.476;2022-12-31T03:44:59;0.15;;;0.15;;
75167;SDS011;63748;48.088;11.476;2022-12-31T03:47:25;0.20;;;0.20;;
75167;SDS011;63748;48.088;11.476;2022-12-31T03:49:51;0.20;;;0.20;;
75167;SDS011;63748;48.088;11.476;2022-12-31T03:52:17;0.43;;;0.20;;
75167;SDS011;63748;48.088;11.476;2022-12-31T03:54:43;0.43;;;0.20;;
75167;SDS011;63748;48.088;11.476;2022-12-31T03:57:09;0.22;;;0.22;;
75167;SDS011;63748;48.088;11.476;2022-12-31T03:59:36;0.25;;;0.25;;
75167;SDS011;63748;48.088;11.476;2022-12-31T04:02:02;0.30;;;0.30;;
75167;SDS011;63748;48.088;11.476;2022-12-31T04:04:29;0.30;;;0.30;;
75167;SDS011;63748;48.088;11.476;2022-12-31T04:06:55;0.10;;;0.10;;
75167;SDS011;63748;48.088;11.476;2022-12-31T04:09:21;0.40;;;0.40;;
75167;SDS011;63748;48.088;11.476;2022-12-31T04:11:47;0.22;;;0.20;;
75167;SDS011;63748;48.088;11.476;2022-12-31T04:14:13;0.08;;;0.08;;
75167;SDS011;63748;48.088;11.476;2022-12-31T04:16:41;0.30;;;0.30;;
75167;SDS011;63748;48.088;11.476;2022-12-31T04:19:07;0.28;;;0.20;;
75167;SDS011;63748;48.088;11.476;2022-12-31T04:21:33;0.30;;;0.20;;
75167;SDS011;63748;48.088;11.476;2022-12-31T04:23:59;0.25;;;0.25;;
75167;SDS011;63748;48.088;11.476;2022-12-31T04:26:26;0.57;;;0.10;;
75167;SDS011;63748;48.088;11.476;2022-12-31T04:28:52;0.30;;;0.30;;
75167;SDS011;63748;48.088;11.476;2022-12-31T04:31:18;0.10;;;0.10;;
75167;SDS011;63748;48.088;11.476;2022-12-31T04:33:44;0.20;;;0.20;;
75167;SDS011;63748;48.088;11.476;2022-12-31T04:36:10;0.10;;;0.10;;
75167;SDS011;63748;48.088;11.476;2022-12-31T04:38:36;0.82;;;0.30;;
75167;SDS011;63748;48.088;11.476;2022-12-31T04:41:02;0.20;;;0.20;;
75167;SDS011;63748;48.088;11.476;2022-12-31T04:43:41;0.20;;;0.20;;
75167;SDS011;63748;48.088;11.476;2022-12-31T04:46:07;0.20;;;0.20;;
75167;SDS011;63748;48.088;11.476;2022-12-31T04:48:33;0.17;;;0.17;;
75167;SDS011;63748;48.088;11.476;2022-12-31T04:50:59;0.57;;;0.20;;
75167;SDS011;63748;48.088;11.476;2022-12-31T04:53:26;0.10;;;0.10;;
75167;SDS011;63748;48.088;11.476;2022-12-31T04:55:52;1.25;;;0.20;;
75167;SDS011;63748;48.088;11.476;2022-12-31T04:58:18;2.22;;;0.73;;
75167;SDS011;63748;48.088;11.476;2022-12-31T05:00:44;0.52;;;0.50;;
75167;SDS011;63748;48.088;11.476;2022-12-31T05:03:13;0.60;;;0.60;;
75167;SDS011;63748;48.088;11.476;2022-12-31T05:05:40;0.70;;;0.50;;
75167;SDS011;63748;48.088;11.476;2022-12-31T05:08:08;2.50;;;0.55;;
75167;SDS011;63748;48.088;11.476;2022-12-31T05:10:34;0.30;;;0.30;;
75167;SDS011;63748;48.088;11.476;2022-12-31T05:13:00;1.88;;;0.50;;
75167;SDS011;63748;48.088;11.476;2022-12-31T05:15:26;0.80;;;0.30;;
75167;SDS011;63748;48.088;11.476;2022-12-31T05:17:52;1.10;;;0.57;;
75167;SDS011;63748;48.088;11.476;2022-12-31T05:20:18;0.82;;;0.40;;
75167;SDS011;63748;48.088;11.476;2022-12-31T05:22:44;2.75;;;1.10;;
75167;SDS011;63748;48.088;11.476;2022-12-31T05:25:10;1.90;;;0.63;;
75167;SDS011;63748;48.088;11.476;2022-12-31T05:27:36;0.50;;;0.50;;
75167;SDS011;63748;48.088;11.476;2022-12-31T05:30:03;0.45;;;0.40;;
75167;SDS011;63748;48.088;11.476;2022-12-31T05:32:30;0.40;;;0.40;;
75167;SDS011;63748;48.088;11.476;2022-12-31T05:34:56;0.80;;;0.50;;
75167;SDS011;63748;48.088;11.476;2022-12-31T05:37:23;2.40;;;0.95;;
75167;SDS011;63748;48.088;11.476;2022-12-31T05:39:49;1.98;;;0.80;;
75167;SDS011;63748;48.088;11.476;2022-12-31T05:42:16;0.73;;;0.52;;
75167;SDS011;63748;48.088;11.476;2022-12-31T05:44:42;1.10;;;0.70;;
75167;SDS011;63748;48.088;11.476;2022-12-31T05:47:08;0.98;;;0.70;;
75167;SDS011;63748;48.088;11.476;2022-12-31T05:49:34;1.05;;;0.40;;
75167;SDS011;63748;48.088;11.476;2022-12-31T05:52:00;0.40;;;0.30;;
75167;SDS011;63748;48.088;11.476;2022-12-31T05:54:26;0.55;;;0.25;;
75167;SDS011;63748;48.088;11.476;2022-12-31T05:56:52;0.25;;;0.25;;
75167;SDS011;63748;48.088;11.476;2022-12-31T05:59:18;0.50;;;0.20;;
75167;SDS011;63748;48.088;11.476;2022-12-31T06:01:44;0.30;;;0.30;;
75167;SDS011;63748;48.088;11.476;2022-12-31T06:04:10;0.17;;;0.17;;
75167;SDS011;63748;48.088;11.476;2022-12-31T06:06:36;0.40;;;0.30;;
75167;SDS011;63748;48.088;11.476;2022-12-31T06:09:03;0.30;;;0.30;;
75167;SDS011;63748;48.088;11.476;2022-12-31T06:11:29;0.38;;;0.30;;
75167;SDS011;63748;48.088;11.476;2022-12-31T06:13:55;0.28;;;0.28;;
75167;SDS011;63748;48.088;11.476;2022-12-31T06:16:22;0.20;;;0.20;;
75167;SDS011;63748;48.088;11.476;2022-12-31T06:18:48;0.20;;;0.20;;
75167;SDS011;63748;48.088;11.476;2022-12-31T06:21:15;0.20;;;0.20;;
75167;SDS011;63748;48.088;11.476;2022-12-31T06:23:41;0.22;;;0.22;;
75167;SDS011;63748;48.088;11.476;2022-12-31T06:26:07;0.30;;;0.30;;
75167;SDS011;63748;48.088;11.476;2022-12-31T06:28:33;0.38;;;0.20;;
75167;SDS011;63748;48.088;11.476;2022-12-31T06:31:00;0.30;;;0.30;;
75167;SDS011;63748;48.088;11.476;2022-12-31T06:33:26;0.20;;;0.20;;
75167;SDS011;63748;48.088;11.476;2022-12-31T06:36:00;0.20;;;0.20;;
75167;SDS011;63748;48.088;11.476;2022-12-31T06:38:26;0.40;;;0.40;;
75167;SDS011;63748;48.088;11.476;2022-12-31T06:40:53;0.20;;;0.20;;
75167;SDS011;63748;48.088;11.476;2022-12-31T06:43:19;0.30;;;0.30;;
75167;SDS011;63748;48.088;11.476;2022-12-31T06:45:45;0.70;;;0.40;;
75167;SDS011;63748;48.088;11.476;2022-12-31T06:48:11;0.15;;;0.15;;
75167;SDS011;63748;48.088;11.476;2022-12-31T06:50:37;0.32;;;0.32;;
75167;SDS011;63748;48.088;11.476;2022-12-31T06:53:04;0.20;;;0.20;;
75167;SDS011;63748;48.088;11.476;2022-12-31T06:55:30;0.28;;;0.28;;
75167;SDS011;63748;48.088;11.476;2022-12-31T06:57:56;0.50;;;0.20;;
75167;SDS011;63748;48.088;11.476;2022-12-31T07:00:23;0.20;;;0.20;;
75167;SDS011;63748;48.088;11.476;2022-12-31T07:05:20;0.20;;;0.20;;
75167;SDS011;63748;48.088;11.476;2022-12-31T07:10:38;1.30;;;0.50;;
75167;SDS011;63748;48.088;11.476;2022-12-31T07:15:37;0.40;;;0.25;;
75167;SDS011;63748;48.088;11.476;2022-12-31T07:18:19;0.85;;;0.40;;
75167;SDS011;63748;48.088;11.476;2022-12-31T07:20:47;0.70;;;0.50;;
75167;SDS011;63748;48.088;11.476;2022-12-31T07:23:13;0.45;;;0.40;;
75167;SDS011;63748;48.088;11.476;2022-12-31T07:25:40;1.30;;;0.73;;
75167;SDS011;63748;48.088;11.476;2022-12-31T07:30:46;1.35;;;0.60;;
75167;SDS011;63748;48.088;11.476;2022-12-31T07:35:55;1.35;;;0.50;;
75167;SDS011;63748;48.088;11.476;2022-12-31T07:49:19;0.30;;;0.30;;
75167;SDS011;63748;48.088;11.476;2022-12-31T07:51:45;0.60;;;0.50;;
75167;SDS011;63748;48.088;11.476;2022-12-31T07:54:11;0.40;;;0.40;;
75167;SDS011;63748;48.088;11.476;2022-12-31T07:56:37;0.30;;;0.30;;
75167;SDS011;63748;48.088;11.476;2022-12-31T08:01:32;0.55;;;0.38;;
75167;SDS011;63748;48.088;11.476;2022-12-31T08:04:13;0.47;;;0.30;;
75167;SDS011;63748;48.088;11.476;2022-12-31T08:09:27;0.38;;;0.35;;
75167;SDS011;63748;48.088;11.476;2022-12-31T08:11:58;0.20;;;0.20;;
75167;SDS011;63748;48.088;11.476;2022-12-31T08:14:25;0.35;;;0.35;;
75167;SDS011;63748;48.088;11.476;2022-12-31T08:16:52;0.20;;;0.20;;
75167;SDS011;63748;48.088;11.476;2022-12-31T08:19:22;0.40;;;0.40;;
75167;SDS011;63748;48.088;11.476;2022-12-31T08:27:04;0.20;;;0.20;;
75167;SDS011;63748;48.088;11.476;2022-12-31T08:29:38;0.38;;;0.30;;
75167;SDS011;63748;48.088;11.476;2022-12-31T08:34:39;0.32;;;0.30;;
75167;SDS011;63748;48.088;11.476;2022-12-31T08:39:41;0.30;;;0.20;;
75167;SDS011;63748;48.088;11.476;2022-12-31T08:45:38;0.45;;;0.40;;
75167;SDS011;63748;48.088;11.476;2022-12-31T08:48:07;0.30;;;0.30;;
75167;SDS011;63748;48.088;11.476;2022-12-31T08:50:30;0.57;;;0.47;;
75167;SDS011;63748;48.088;11.476;2022-12-31T08:52:56;0.57;;;0.35;;
75167;SDS011;63748;48.088;11.476;2022-12-31T08:55:22;0.43;;;0.40;;
75167;SDS011;63748;48.088;11.476;2022-12-31T08:57:55;0.55;;;0.55;;
75167;SDS011;63748;48.088;11.476;2022-12-31T09:00:24;0.68;;;0.55;;
75167;SDS011;63748;48.088;11.476;2022-12-31T09:18:01;0.30;;;0.30;;
75167;SDS011;63748;48.088;11.476;2022-12-31T09:20:28;0.30;;;0.20;;
75167;SDS011;63748;48.088;11.476;2022-12-31T09:22:55;0.40;;;0.40;;
75167;SDS011;63748;48.088;11.476;2022-12-31T09:25:22;0.50;;;0.40;;
75167;SDS011;63748;48.088;11.476;2022-12-31T09:27:50;0.50;;;0.50;;
75167;SDS011;63748;48.088;11.476;2022-12-31T09:30:18;0.50;;;0.40;;
75167;SDS011;63748;48.088;11.476;2022-12-31T09:33:02;0.22;;;0.22;;
75167;SDS011;63748;48.088;11.476;2022-12-31T09:35:40;0.30;;;0.30;;
75167;SDS011;63748;48.088;11.476;2022-12-31T09:43:59;0.75;;;0.40;;
75167;SDS011;63748;48.088;11.476;2022-12-31T10:11:09;0.40;;;0.40;;
75167;SDS011;63748;48.088;11.476;2022-12-31T10:19:47;0.38;;;0.25;;
75167;SDS011;63748;48.088;11.476;2022-12-31T10:21:58;0.28;;;0.28;;
75167;SDS011;63748;48.088;11.476;2022-12-31T10:29:23;0.80;;;0.30;;
75167;SDS011;63748;48.088;11.476;2022-12-31T10:39:27;0.40;;;0.40;;
75167;SDS011;63748;48.088;11.476;2022-12-31T10:42:11;0.32;;;0.32;;
75167;SDS011;63748;48.088;11.476;2022-12-31T10:50:07;0.30;;;0.30;;
75167;SDS011;63748;48.088;11.476;2022-12-31T10:58:09;1.08;;;0.60;;
75167;SDS011;63748;48.088;11.476;2022-12-31T11:08:42;0.30;;;0.30;;
75167;SDS011;63748;48.088;11.476;2022-12-31T11:19:09;0.30;;;0.30;;
75167;SDS011;63748;48.088;11.476;2022-12-31T11:31:59;0.88;;;0.40;;
75167;SDS011;63748;48.088;11.476;2022-12-31T11:42:20;0.65;;;0.40;;
75167;SDS011;63748;48.088;11.476;2022-12-31T11:45:39;0.60;;;0.40;;
75167;SDS011;63748;48.088;11.476;2022-12-31T11:53:04;0.22;;;0.17;;
75167;SDS011;63748;48.088;11.476;2022-12-31T11:58:11;0.35;;;0.35;;
75167;SDS011;63748;48.088;11.476;2022-12-31T12:00:38;0.32;;;0.20;;
75167;SDS011;63748;48.088;11.476;2022-12-31T12:03:05;0.30;;;0.30;;
75167;SDS011;63748;48.088;11.476;2022-12-31T12:05:32;0.38;;;0.38;;
75167;SDS011;63748;48.088;11.476;2022-12-31T12:07:59;0.40;;;0.40;;
75167;SDS011;63748;48.088;11.476;2022-12-31T12:10:27;0.38;;;0.38;;
75167;SDS011;63748;48.088;11.476;2022-12-31T12:12:54;0.40;;;0.40;;
75167;SDS011;63748;48.088;11.476;2022-12-31T12:15:22;0.40;;;0.30;;
75167;SDS011;63748;48.088;11.476;2022-12-31T12:17:52;0.50;;;0.47;;
75167;SDS011;63748;48.088;11.476;2022-12-31T12:20:27;0.40;;;0.40;;
75167;SDS011;63748;48.088;11.476;2022-12-31T12:22:55;0.43;;;0.38;;
75167;SDS011;63748;48.088;11.476;2022-12-31T12:25:23;0.40;;;0.40;;
75167;SDS011;63748;48.088;11.476;2022-12-31T12:27:50;0.32;;;0.32;;
75167;SDS011;63748;48.088;11.476;2022-12-31T12:30:23;0.47;;;0.30;;
75167;SDS011;63748;48.088;11.476;2022-12-31T12:32:50;0.40;;;0.30;;
75167;SDS011;63748;48.088;11.476;2022-12-31T12:35:18;0.38;;;0.38;;
75167;SDS011;63748;48.088;11.476;2022-12-31T12:37:56;0.40;;;0.40;;
75167;SDS011;63748;48.088;11.476;2022-12-31T12:40:22;0.30;;;0.30;;
75167;SDS011;63748;48.088;11.476;2022-12-31T12:42:49;0.40;;;0.40;;
75167;SDS011;63748;48.088;11.476;2022-12-31T12:47:46;0.40;;;0.40;;
75167;SDS011;63748;48.088;11.476;2022-12-31T12:50:16;0.30;;;0.30;;
75167;SDS011;63748;48.088;11.476;2022-12-31T12:55:14;0.30;;;0.30;;
75167;SDS011;63748;48.088;11.476;2022-12-31T12:57:47;0.55;;;0.52;;
75167;SDS011;63748;48.088;11.476;2022-12-31T13:05:46;0.43;;;0.40;;
75167;SDS011;63748;48.088;11.476;2022-12-31T13:13:35;0.80;;;0.70;;
75167;SDS011;63748;48.088;11.476;2022-12-31T13:16:23;1.48;;;1.00;;
75167;SDS011;63748;48.088;11.476;2022-12-31T13:19:17;1.73;;;0.80;;
75167;SDS011;63748;48.088;11.476;2022-12-31T13:21:44;1.67;;;0.40;;
75167;SDS011;63748;48.088;11.476;2022-12-31T13:27:01;0.60;;;0.40;;
75167;SDS011;63748;48.088;11.476;2022-12-31T13:29:29;0.70;;;0.60;;
75167;SDS011;63748;48.088;11.476;2022-12-31T13:31:58;1.13;;;0.50;;
75167;SDS011;63748;48.088;11.476;2022-12-31T13:34:27;1.92;;;0.77;;
75167;SDS011;63748;48.088;11.476;2022-12-31T13:36:55;0.65;;;0.65;;
75167;SDS011;63748;48.088;11.476;2022-12-31T13:39:27;1.67;;;1.05;;
75167;SDS011;63748;48.088;11.476;2022-12-31T13:41:55;1.60;;;0.90;;
75167;SDS011;63748;48.088;11.476;2022-12-31T13:46:50;2.08;;;1.13;;
75167;SDS011;63748;48.088;11.476;2022-12-31T13:49:19;2.13;;;1.10;;
75167;SDS011;63748;48.088;11.476;2022-12-31T13:52:09;1.50;;;1.05;;
75167;SDS011;63748;48.088;11.476;2022-12-31T13:54:37;1.95;;;0.98;;
75167;SDS011;63748;48.088;11.476;2022-12-31T13:57:15;1.48;;;0.90;;
75167;SDS011;63748;48.088;11.476;2022-12-31T13:59:44;0.93;;;0.80;;
75167;SDS011;63748;48.088;11.476;2022-12-31T14:04:59;1.70;;;1.00;;
75167;SDS011;63748;48.088;11.476;2022-12-31T14:07:31;2.15;;;0.88;;
75167;SDS011;63748;48.088;11.476;2022-12-31T14:09:59;1.42;;;0.80;;
75167;SDS011;63748;48.088;11.476;2022-12-31T14:25:15;1.48;;;0.90;;
75167;SDS011;63748;48.088;11.476;2022-12-31T14:27:41;2.05;;;1.20;;
75167;SDS011;63748;48.088;11.476;2022-12-31T14:30:15;1.25;;;1.02;;
75167;SDS011;63748;48.088;11.476;2022-12-31T14:32:54;2.00;;;1.20;;
75167;SDS011;63748;48.088;11.476;2022-12-31T14:50:24;2.38;;;1.00;;
75167;SDS011;63748;48.088;11.476;2022-12-31T14:55:32;2.38;;;1.23;;
75167;SDS011;63748;48.088;11.476;2022-12-31T14:58:02;3.28;;;1.45;;
75167;SDS011;63748;48.088;11.476;2022-12-31T15:00:30;2.03;;;1.35;;
75167;SDS011;63748;48.088;11.476;2022-12-31T15:02:59;3.10;;;1.45;;
75167;SDS011;63748;48.088;11.476;2022-12-31T15:05:27;2.25;;;1.65;;
75167;SDS011;63748;48.088;11.476;2022-12-31T15:13:18;2.92;;;1.63;;
75167;SDS011;63748;48.088;11.476;2022-12-31T15:15:50;3.50;;;2.03;;
75167;SDS011;63748;48.088;11.476;2022-12-31T15:21:19;3.97;;;2.28;;
75167;SDS011;63748;48.088;11.476;2022-12-31T15:26:23;4.07;;;1.80;;
75167;SDS011;63748;48.088;11.476;2022-12-31T15:31:25;5.35;;;2.58;;
75167;SDS011;63748;48.088;11.476;2022-12-31T15:33:54;5.20;;;1.80;;
75167;SDS011;63748;48.088;11.476;2022-12-31T15:36:22;4.45;;;2.00;;
75167;SDS011;63748;48.088;11.476;2022-12-31T15:43:47;6.35;;;3.42;;
75167;SDS011;63748;48.088;11.476;2022-12-31T15:46:16;3.60;;;2.22;;
75167;SDS011;63748;48.088;11.476;2022-12-31T15:51:16;5.68;;;2.30;;
75167;SDS011;63748;48.088;11.476;2022-12-31T15:53:44;4.30;;;3.05;;
75167;SDS011;63748;48.088;11.476;2022-12-31T15:56:37;6.28;;;2.70;;
75167;SDS011;63748;48.088;11.476;2022-12-31T15:59:05;5.05;;;2.70;;
75167;SDS011;63748;48.088;11.476;2022-12-31T16:01:33;4.57;;;2.97;;
75167;SDS011;63748;48.088;11.476;2022-12-31T16:04:11;6.07;;;4.47;;
75167;SDS011;63748;48.088;11.476;2022-12-31T16:06:39;8.75;;;5.13;;
75167;SDS011;63748;48.088;11.476;2022-12-31T16:09:15;6.20;;;4.32;;
75167;SDS011;63748;48.088;11.476;2022-12-31T16:11:42;8.02;;;5.03;;
75167;SDS011;63748;48.088;11.476;2022-12-31T16:14:22;6.18;;;4.10;;
75167;SDS011;63748;48.088;11.476;2022-12-31T16:16:50;5.07;;;3.20;;
75167;SDS011;63748;48.088;11.476;2022-12-31T16:19:40;6.78;;;3.90;;
75167;SDS011;63748;48.088;11.476;2022-12-31T16:22:16;5.22;;;2.97;;
75167;SDS011;63748;48.088;11.476;2022-12-31T16:24:42;4.05;;;2.75;;
75167;SDS011;63748;48.088;11.476;2022-12-31T16:27:11;5.75;;;3.47;;
75167;SDS011;63748;48.088;11.476;2022-12-31T16:29:40;5.38;;;3.13;;
75167;SDS011;63748;48.088;11.476;2022-12-31T16:32:11;7.45;;;4.85;;
75167;SDS011;63748;48.088;11.476;2022-12-31T16:34:38;8.27;;;5.93;;
75167;SDS011;63748;48.088;11.476;2022-12-31T16:37:05;9.27;;;5.57;;
75167;SDS011;63748;48.088;11.476;2022-12-31T16:39:33;9.68;;;5.72;;
75167;SDS011;63748;48.088;11.476;2022-12-31T16:44:34;9.88;;;5.82;;
75167;SDS011;63748;48.088;11.476;2022-12-31T16:47:01;10.40;;;6.03;;
75167;SDS011;63748;48.088;11.476;2022-12-31T16:49:28;7.32;;;5.50;;
75167;SDS011;63748;48.088;11.476;2022-12-31T16:51:57;6.15;;;4.45;;
75167;SDS011;63748;48.088;11.476;2022-12-31T16:54:30;7.50;;;4.50;;
75167;SDS011;63748;48.088;11.476;2022-12-31T16:56:57;8.85;;;4.72;;
75167;SDS011;63748;48.088;11.476;2022-12-31T16:59:28;7.65;;;4.30;;
75167;SDS011;63748;48.088;11.476;2022-12-31T17:01:56;7.30;;;4.50;;
75167;SDS011;63748;48.088;11.476;2022-12-31T17:06:50;14.50;;;6.80;;
75167;SDS011;63748;48.088;11.476;2022-12-31T17:14:18;13.82;;;7.13;;
75167;SDS011;63748;48.088;11.476;2022-12-31T17:22:02;19.90;;;10.10;;
75167;SDS011;63748;48.088;11.476;2022-12-31T17:24:29;19.80;;;9.57;;
75167;SDS011;63748;48.088;11.476;2022-12-31T17:27:01;15.10;;;8.20;;
75167;SDS011;63748;48.088;11.476;2022-12-31T17:29:28;15.38;;;8.68;;
75167;SDS011;63748;48.088;11.476;2022-12-31T17:31:58;14.07;;;8.82;;
75167;SDS011;63748;48.088;11.476;2022-12-31T17:34:34;14.27;;;9.88;;
75167;SDS011;63748;48.088;11.476;2022-12-31T17:39:46;10.77;;;6.93;;
75167;SDS011;63748;48.088;11.476;2022-12-31T17:42:14;11.05;;;7.13;;
75167;SDS011;63748;48.088;11.476;2022-12-31T17:44:45;12.95;;;7.68;;
75167;SDS011;63748;48.088;11.476;2022-12-31T17:47:11;11.93;;;8.50;;
75167;SDS011;63748;48.088;11.476;2022-12-31T17:49:38;15.43;;;10.13;;
75167;SDS011;63748;48.088;11.476;2022-12-31T17:52:08;15.25;;;10.73;;
75167;SDS011;63748;48.088;11.476;2022-12-31T17:54:34;19.65;;;11.50;;
75167;SDS011;63748;48.088;11.476;2022-12-31T17:57:00;14.02;;;9.57;;
75167;SDS011;63748;48.088;11.476;2022-12-31T17:59:26;21.13;;;12.45;;
75167;SDS011;63748;48.088;11.476;2022-12-31T18:01:54;22.42;;;11.95;;
75167;SDS011;63748;48.088;11.476;2022-12-31T18:04:21;19.17;;;11.50;;
75167;SDS011;63748;48.088;11.476;2022-12-31T18:06:47;23.45;;;12.35;;
75167;SDS011;63748;48.088;11.476;2022-12-31T18:09:13;19.10;;;13.02;;
75167;SDS011;63748;48.088;11.476;2022-12-31T18:11:40;23.92;;;12.85;;
75167;SDS011;63748;48.088;11.476;2022-12-31T18:14:06;21.15;;;13.27;;
75167;SDS011;63748;48.088;11.476;2022-12-31T18:16:32;27.80;;;16.80;;
75167;SDS011;63748;48.088;11.476;2022-12-31T18:18:59;24.40;;;14.75;;
75167;SDS011;63748;48.088;11.476;2022-12-31T18:21:29;24.50;;;15.75;;
75167;SDS011;63748;48.088;11.476;2022-12-31T18:24:00;21.25;;;14.15;;
75167;SDS011;63748;48.088;11.476;2022-12-31T18:26:27;22.08;;;13.82;;
75167;SDS011;63748;48.088;11.476;2022-12-31T18:28:53;19.80;;;12.57;;
75167;SDS011;63748;48.088;11.476;2022-12-31T18:31:20;22.65;;;14.20;;
75167;SDS011;63748;48.088;11.476;2022-12-31T18:33:47;21.50;;;13.98;;
75167;SDS011;63748;48.088;11.476;2022-12-31T18:36:14;21.75;;;14.75;;
75167;SDS011;63748;48.088;11.476;2022-12-31T18:38:40;24.58;;;13.73;;
75167;SDS011;63748;48.088;11.476;2022-12-31T18:41:10;21.17;;;14.13;;
75167;SDS011;63748;48.088;11.476;2022-12-31T18:43:39;21.42;;;13.40;;
75167;SDS011;63748;48.088;11.476;2022-12-31T18:46:08;35.88;;;20.65;;
75167;SDS011;63748;48.088;11.476;2022-12-31T18:48:34;24.77;;;14.48;;
75167;SDS011;63748;48.088;11.476;2022-12-31T18:51:00;34.65;;;20.58;;
75167;SDS011;63748;48.088;11.476;2022-12-31T18:53:26;42.90;;;23.98;;
75167;SDS011;63748;48.088;11.476;2022-12-31T18:55:53;37.30;;;23.02;;
75167;SDS011;63748;48.088;11.476;2022-12-31T18:58:20;43.95;;;26.50;;
75167;SDS011;63748;48.088;11.476;2022-12-31T19:00:47;46.78;;;26.83;;
75167;SDS011;63748;48.088;11.476;2022-12-31T19:03:14;43.55;;;26.30;;
75167;SDS011;63748;48.088;11.476;2022-12-31T19:05:40;33.20;;;20.75;;
75167;SDS011;63748;48.088;11.476;2022-12-31T19:08:07;29.70;;;18.75;;
75167;SDS011;63748;48.088;11.476;2022-12-31T19:10:33;41.10;;;27.75;;
75167;SDS011;63748;48.088;11.476;2022-12-31T19:13:00;36.03;;;22.17;;
75167;SDS011;63748;48.088;11.476;2022-12-31T19:15:28;34.58;;;20.10;;
75167;SDS011;63748;48.088;11.476;2022-12-31T19:17:57;18.83;;;10.88;;